Thursday, May 24, 2018, 3:17 PM EDT
Back to Local

KCXY, Harrisburg Capital City

Location: New Cumberland, PA, United States Lat: 40.217
Local Time: 3:17 PM EDT (19:17 GMT) Lon: -76.85
Time Zone: US/Eastern Elev: 347 ft

Show me the last for .
Show Decoded

2018-05-24 14:56 METAR KCXY 241856Z VRB06KT 10SM CLR 29/07 A3016 RMK AO2 SLP211 T02890072 =
2018-05-24 13:56 METAR KCXY 241756Z 30006KT 10SM CLR 28/08 A3017 RMK AO2 SLP214 T02830078 10283
                 20206 58010 =
2018-05-24 12:56 METAR KCXY 241656Z 33008KT 10SM CLR 27/08 A3018 RMK AO2 SLP218 T02720078 =
2018-05-24 11:56 METAR KCXY 241556Z VRB03KT 10SM CLR 26/08 A3019 RMK AO2 SLP223 T02610083 =
2018-05-24 10:56 METAR KCXY 241456Z 33004KT 10SM CLR 24/08 A3020 RMK AO2 SLP225 T02440078 50001 =
2018-05-24 09:56 METAR KCXY 241356Z 32005KT 10SM CLR 23/08 A3020 RMK AO2 SLP226 T02330083 =
2018-05-24 08:56 METAR KCXY 241256Z 31005KT 10SM CLR 22/08 A3020 RMK AO2 SLP224 T02170083 =
2018-05-24 07:56 METAR KCXY 241156Z 00000KT 10SM CLR 21/12 A3019 RMK AO2 SLP224 T02060117 10206
                 20133 51020 =
2018-05-24 06:56 METAR KCXY 241056Z 00000KT 10SM CLR 16/12 A3018 RMK AO2 SLP220 T01610122 =
2018-05-24 05:56 METAR KCXY 240956Z AUTO 00000KT 10SM CLR 13/11 A3015 RMK AO2 SLP210 T01330111 =
2018-05-24 04:56 METAR KCXY 240856Z AUTO 29003KT 10SM CLR 14/12 A3013 RMK AO2 SLP203 T01390117
                 53009 =
2018-05-24 03:56 METAR KCXY 240756Z AUTO 00000KT 10SM CLR 17/13 A3012 RMK AO2 SLP198 T01670133 =
2018-05-24 02:56 METAR KCXY 240656Z AUTO 00000KT 10SM CLR 17/13 A3011 RMK AO2 SLP195 T01720128 =
2018-05-24 01:56 METAR KCXY 240556Z AUTO 30003KT 10SM CLR 18/13 A3011 RMK AO2 SLP194 T01830133
                 10239 20172 51012 =
2018-05-24 00:56 METAR KCXY 240456Z AUTO 27004KT 10SM CLR 19/14 A3010 RMK AO2 SLP192 T01890139
                 402670178 =
2018-05-23 23:56 METAR KCXY 240356Z AUTO 00000KT 10SM CLR 19/14 A3009 RMK AO2 SLP188 T01890139 =
2018-05-23 22:56 METAR KCXY 240256Z AUTO 26006KT 10SM CLR 19/14 A3007 RMK AO2 SLP183 T01940139
                 51010 =
2018-05-23 21:56 METAR KCXY 240156Z AUTO 25004KT 10SM CLR 19/14 A3007 RMK AO2 SLP181 T01940139 =
2018-05-23 20:56 METAR KCXY 240056Z 24004KT 10SM CLR 20/14 A3006 RMK AO2 SLP177 T02000144 =
2018-05-23 19:56 METAR KCXY 232356Z 27003KT 10SM CLR 23/13 A3004 RMK AO2 SLP173 T02330128 10267
                 20233 53004 =
2018-05-23 18:56 METAR KCXY 232256Z VRB04KT 10SM CLR 26/12 A3004 RMK AO2 SLP170 T02560122 =
2018-05-23 17:56 METAR KCXY 232156Z 31005KT 10SM CLR 27/11 A3004 RMK AO2 SLP171 T02670111 =
2018-05-23 16:56 METAR KCXY 232056Z 32011KT 10SM CLR 26/11 A3003 RMK AO2 SLP169 T02610111 55006 =
2018-05-23 15:56 METAR KCXY 231956Z 34011KT 10SM SCT030 26/12 A3003 RMK AO2 SLP167 T02610122 =

Support USWX by starting your Amazon purchase here.